Time;durP1;ratioP1;P1;durP2;ratioP2;P2;SDS_P1;SDS_P2;PMS_P1;PMS_P2;Temp;Humidity;BMP_temperature;BMP_pressure;BME280_temperature;BME280_humidity;BME280_pressure;Samples;Min_cycle;Max_cycle;Signal;HPM_P1;HPM_P2
2022/05/03 00:00:41;;;;;;;4.37;2.73;;;;;;;11.81;56.25;101033.44;5094589;28;20208;-85
2022/05/03 00:03:14;;;;;;;3.90;3.03;;;;;;;11.79;56.23;101032.69;5093811;28;20592;-83
2022/05/03 00:05:51;;;;;;;4.80;2.93;;;;;;;11.76;56.24;101033.72;5094271;28;20635;-84
2022/05/03 00:08:23;;;;;;;4.90;2.83;;;;;;;11.75;56.32;101031.13;5093786;28;20645;-84
2022/05/03 00:10:58;;;;;;;4.27;2.70;;;;;;;11.71;56.45;101033.09;5093740;28;20195;-84
2022/05/03 00:13:30;;;;;;;3.20;2.60;;;;;;;11.69;56.31;101040.34;5094069;28;20212;-84
2022/05/03 00:15:57;;;;;;;2.50;2.30;;;;;;;11.65;56.33;101025.47;5094730;28;20275;-84
2022/05/03 00:18:24;;;;;;;2.60;2.40;;;;;;;11.65;56.33;101029.94;5094272;28;20196;-86
2022/05/03 00:20:53;;;;;;;3.10;2.20;;;;;;;11.64;56.49;101028.25;5094928;28;20232;-85
2022/05/03 00:23:22;;;;;;;3.80;2.23;;;;;;;11.60;56.26;101024.94;5094147;28;20232;-85
2022/05/03 00:25:50;;;;;;;2.93;2.63;;;;;;;11.59;56.01;101027.69;5093118;28;20258;-86
2022/05/03 00:28:18;;;;;;;3.40;2.30;;;;;;;11.57;56.09;101032.25;5092765;28;20205;-83
2022/05/03 00:30:46;;;;;;;4.50;2.60;;;;;;;11.54;56.34;101032.44;5093832;28;20287;-84
2022/05/03 00:33:14;;;;;;;3.97;2.30;;;;;;;11.51;56.39;101025.47;5093575;28;20200;-84
2022/05/03 00:35:42;;;;;;;2.53;2.30;;;;;;;11.48;56.24;101034.50;5094062;28;20205;-85
2022/05/03 00:38:10;;;;;;;3.03;2.73;;;;;;;11.45;56.32;101031.19;5093385;28;20659;-84
2022/05/03 00:40:44;;;;;;;3.17;2.50;;;;;;;11.43;56.46;101025.09;5092955;28;20208;-83
2022/05/03 00:43:19;;;;;;;2.83;2.40;;;;;;;11.39;56.53;101026.22;5094017;28;20730;-83
2022/05/03 00:45:50;;;;;;;4.07;2.27;;;;;;;11.35;56.37;101019.34;5092630;28;20193;-83
2022/05/03 00:48:30;;;;;;;2.97;2.67;;;;;;;11.33;56.79;101029.25;5093743;28;20232;-83
2022/05/03 00:51:03;;;;;;;3.07;2.83;;;;;;;11.29;56.78;101031.25;5093726;28;20196;-84
2022/05/03 00:53:34;;;;;;;2.90;2.70;;;;;;;11.26;57.11;101026.13;5093955;28;20329;-84
2022/05/03 00:56:39;;;;;;;4.43;2.97;;;;;;;11.24;56.98;101027.16;5094359;28;20198;-84
2022/05/03 00:59:18;;;;;;;3.77;2.50;;;;;;;11.16;57.00;101032.94;5068268;28;20689;-83
2022/05/03 01:01:55;;;;;;;3.30;2.93;;;;;;;11.11;57.18;101033.19;5083695;28;20216;-85
2022/05/03 01:04:31;;;;;;;3.10;2.60;;;;;;;11.04;57.47;101031.88;5093051;28;20227;-84
2022/05/03 01:07:18;;;;;;;3.77;2.30;;;;;;;11.00;57.61;101035.66;5093656;28;20232;-85
2022/05/03 01:09:55;;;;;;;3.87;2.63;;;;;;;10.95;57.51;101043.06;5093302;28;20193;-86
2022/05/03 01:12:25;;;;;;;3.10;2.43;;;;;;;10.88;57.90;101039.06;5092764;28;20607;-83
2022/05/03 01:15:06;;;;;;;3.33;2.73;;;;;;;10.85;57.88;101036.56;5093618;28;20606;-85
2022/05/03 01:17:42;;;;;;;4.80;2.20;;;;;;;10.82;58.53;101028.75;5094106;28;20203;-85
2022/05/03 01:20:11;;;;;;;2.70;2.47;;;;;;;10.81;58.52;101039.47;5096579;28;20260;-83
2022/05/03 01:23:02;;;;;;;2.53;2.20;;;;;;;10.79;58.42;101031.56;5097839;28;20224;-84
2022/05/03 01:25:52;;;;;;;4.03;1.83;;;;;;;10.76;58.40;101031.75;5098444;28;20320;-85
2022/05/03 01:28:29;;;;;;;2.40;2.20;;;;;;;10.75;57.96;101038.03;5097564;28;20279;-84
2022/05/03 01:30:59;;;;;;;2.23;1.70;;;;;;;10.72;57.49;101019.59;5098346;28;20276;-85
2022/05/03 01:33:43;;;;;;;2.40;1.37;;;;;;;10.68;56.88;101015.38;5097842;28;20264;-83
2022/05/03 01:36:11;;;;;;;4.07;1.57;;;;;;;10.62;56.07;101021.03;5097678;28;20200;-83
2022/05/03 01:39:00;;;;;;;2.77;1.70;;;;;;;10.57;56.20;101025.78;5097566;28;20303;-84
2022/05/03 01:41:32;;;;;;;3.13;1.60;;;;;;;10.54;56.22;101026.81;5097129;28;20188;-84
2022/05/03 01:44:10;;;;;;;1.67;1.37;;;;;;;10.51;56.11;101027.00;5097368;28;20224;-84
2022/05/03 01:46:39;;;;;;;3.07;1.30;;;;;;;10.51;56.09;101026.13;5098057;28;20208;-84
2022/05/03 01:52:28;;;;;;;4.13;1.20;;;;;;;10.47;55.37;101016.59;5097073;28;20710;-84
2022/05/03 01:55:09;;;;;;;2.60;1.10;;;;;;;10.43;55.64;101030.09;5075926;28;20230;-85
2022/05/03 01:57:47;;;;;;;4.37;1.13;;;;;;;10.39;55.68;101022.38;5096746;28;20660;-84
2022/05/03 02:00:14;;;;;;;1.47;0.80;;;;;;;10.37;55.37;101024.25;5097432;28;20261;-83
2022/05/03 02:02:53;;;;;;;1.00;1.00;;;;;;;10.35;55.62;101032.34;5077813;28;20256;-86
2022/05/03 02:05:46;;;;;;;3.33;1.07;;;;;;;10.32;55.43;101032.50;5117348;28;20222;-83
2022/05/03 02:08:18;;;;;;;2.03;1.00;;;;;;;10.29;54.91;101032.66;5113525;28;20207;-84
2022/05/03 02:11:03;;;;;;;2.27;1.00;;;;;;;10.29;54.94;101034.47;5116921;28;20188;-86
2022/05/03 02:16:48;;;;;;;1.77;0.90;;;;;;;10.25;54.70;101028.44;5090202;28;20571;-85
2022/05/03 02:19:34;;;;;;;1.33;0.83;;;;;;;10.22;54.77;101030.41;5096855;28;20594;-84
2022/05/03 02:22:16;;;;;;;1.20;0.90;;;;;;;10.18;54.56;101024.41;5096774;28;20592;-85
2022/05/03 02:24:51;;;;;;;1.83;0.80;;;;;;;10.17;54.13;101016.50;5096816;28;20259;-85
2022/05/03 02:27:19;;;;;;;1.30;0.73;;;;;;;10.14;54.53;101016.66;5096561;28;20188;-86
2022/05/03 02:29:47;;;;;;;2.20;1.10;;;;;;;10.10;54.48;101008.00;5096349;28;20616;-85
2022/05/03 02:32:18;;;;;;;1.53;0.90;;;;;;;10.06;53.83;101011.75;5096491;28;20261;-84
2022/05/03 02:34:54;;;;;;;1.67;0.80;;;;;;;10.00;54.14;101012.13;5096623;28;20702;-83
2022/05/03 02:37:24;;;;;;;1.83;1.00;;;;;;;9.97;53.94;101017.59;5096171;28;20283;-84
2022/05/03 02:39:55;;;;;;;1.60;1.00;;;;;;;9.95;53.77;101006.19;5096391;28;20201;-84
2022/05/03 02:42:22;;;;;;;1.30;0.60;;;;;;;9.91;54.32;101013.47;5096360;28;20291;-83
2022/05/03 02:44:50;;;;;;;3.63;1.00;;;;;;;9.91;54.22;101009.94;5092622;28;20662;-85
2022/05/03 02:47:28;;;;;;;1.40;0.80;;;;;;;9.90;54.37;101018.88;5089949;28;20557;-84
2022/05/03 02:50:10;;;;;;;1.50;0.80;;;;;;;9.86;54.55;101022.63;5095654;28;20219;-86
2022/05/03 02:52:49;;;;;;;1.27;0.73;;;;;;;9.87;54.52;101024.34;5090646;28;20220;-83
2022/05/03 02:55:22;;;;;;;1.47;0.90;;;;;;;9.82;54.94;101018.44;5093060;28;20219;-83
2022/05/03 02:57:55;;;;;;;1.43;0.93;;;;;;;9.81;54.12;101024.69;5095542;28;20206;-83
2022/05/03 03:03:45;;;;;;;3.73;1.03;;;;;;;9.74;54.16;101014.38;5095632;28;20223;-83
2022/05/03 03:06:22;;;;;;;0.90;0.70;;;;;;;9.71;53.96;101013.69;5095045;28;20214;-84
2022/05/03 03:08:51;;;;;;;0.90;0.87;;;;;;;9.68;54.02;101013.84;5095499;28;20578;-83
2022/05/03 03:11:32;;;;;;;1.63;0.87;;;;;;;9.65;53.88;101020.22;5095195;28;20669;-83
2022/05/03 03:14:21;;;;;;;0.97;0.80;;;;;;;9.63;54.24;101015.91;5095092;28;20223;-84
2022/05/03 03:16:54;;;;;;;1.80;1.20;;;;;;;9.61;54.28;101013.34;5094876;28;20627;-84
2022/05/03 03:19:55;;;;;;;2.73;1.53;;;;;;;9.61;54.46;101007.16;5095025;28;20607;-83
2022/05/03 03:22:29;;;;;;;2.93;2.73;;;;;;;9.63;54.94;101007.94;5095380;28;20227;-86
2022/05/03 03:24:58;;;;;;;2.47;2.27;;;;;;;9.62;55.08;101008.88;5095912;28;20219;-88
2022/05/03 03:27:28;;;;;;;1.87;1.77;;;;;;;9.64;55.31;101010.50;5095188;28;20283;-85
2022/05/03 03:29:57;;;;;;;1.80;1.70;;;;;;;9.62;54.64;100998.25;5095147;28;20204;-86
2022/05/03 03:32:25;;;;;;;1.73;1.60;;;;;;;9.65;55.52;101009.56;5086563;28;20650;-84
2022/05/03 03:34:55;;;;;;;1.23;1.10;;;;;;;9.65;55.15;101011.38;5083118;28;20220;-86
2022/05/03 03:37:25;;;;;;;2.30;1.03;;;;;;;9.62;55.04;101007.06;5081255;28;20266;-84
2022/05/03 03:39:52;;;;;;;1.53;1.10;;;;;;;9.63;55.38;101010.59;5095425;28;20206;-84
2022/05/03 03:42:19;;;;;;;3.43;1.50;;;;;;;9.63;55.09;101006.13;5077048;28;20228;-82
2022/05/03 03:44:46;;;;;;;1.20;1.00;;;;;;;9.61;54.98;101007.16;5095403;28;20769;-82
2022/05/03 03:47:14;;;;;;;1.80;1.00;;;;;;;9.61;55.51;101007.16;5091844;28;20231;-83
2022/05/03 03:49:41;;;;;;;1.57;0.93;;;;;;;9.62;55.10;101011.53;5094925;28;20227;-82
2022/05/03 03:52:09;;;;;;;3.60;1.17;;;;;;;9.60;55.10;101005.44;5093085;28;20593;-82
2022/05/03 03:54:40;;;;;;;1.70;1.10;;;;;;;9.59;55.69;101009.03;5083651;28;20280;-83
2022/05/03 03:57:07;;;;;;;2.20;1.20;;;;;;;9.57;56.49;101006.44;5095747;28;20237;-82
2022/05/03 03:59:35;;;;;;;1.07;1.00;;;;;;;9.54;57.33;101001.28;5093846;28;20292;-83
2022/05/03 04:02:02;;;;;;;2.17;1.00;;;;;;;9.52;57.26;101004.97;5095854;28;20196;-82
2022/05/03 04:04:31;;;;;;;2.57;1.00;;;;;;;9.48;58.56;101009.63;5095232;28;20230;-85
2022/05/03 04:06:58;;;;;;;1.47;1.10;;;;;;;9.45;59.17;100998.28;5096858;28;20723;-82
2022/05/03 04:09:25;;;;;;;1.30;1.00;;;;;;;9.43;59.19;101009.00;5097541;28;20203;-83
2022/05/03 04:11:54;;;;;;;1.43;1.10;;;;;;;9.41;58.90;101013.53;5097690;28;20669;-82
2022/05/03 04:14:20;;;;;;;1.20;1.03;;;;;;;9.40;58.91;101006.50;5097779;28;20232;-82
2022/05/03 04:16:47;;;;;;;1.20;1.10;;;;;;;9.38;58.98;101017.19;5096926;28;20212;-82
2022/05/03 04:19:14;;;;;;;2.07;1.10;;;;;;;9.37;59.32;101006.66;5097277;28;20606;-82
2022/05/03 04:21:41;;;;;;;1.83;1.40;;;;;;;9.34;59.50;101010.31;5097086;28;20295;-83
2022/05/03 04:24:08;;;;;;;1.83;1.47;;;;;;;9.31;60.46;101013.16;5096490;28;20223;-82
2022/05/03 04:26:34;;;;;;;1.83;1.10;;;;;;;9.27;60.99;101008.94;5097821;28;20264;-81
2022/05/03 04:29:04;;;;;;;3.43;1.37;;;;;;;9.26;61.53;101009.88;5098319;28;20224;-82
2022/05/03 04:31:32;;;;;;;5.13;1.30;;;;;;;9.25;61.59;101009.97;5098149;28;20677;-82
2022/05/03 04:34:00;;;;;;;2.17;1.40;;;;;;;9.18;62.03;101009.41;5096964;28;20223;-82
2022/05/03 04:36:29;;;;;;;2.37;1.47;;;;;;;9.17;62.48;101009.47;5097555;28;20211;-82
2022/05/03 04:38:56;;;;;;;2.73;1.60;;;;;;;9.11;62.87;101013.34;5095310;28;20204;-83
2022/05/03 04:41:23;;;;;;;4.13;2.20;;;;;;;9.14;63.17;101025.56;5095518;28;20235;-83
2022/05/03 04:43:50;;;;;;;4.33;2.10;;;;;;;9.13;62.92;101018.56;5094990;28;20227;-83
2022/05/03 04:46:19;;;;;;;2.43;1.93;;;;;;;9.11;62.57;101023.97;5095384;28;20207;-83
2022/05/03 04:48:45;;;;;;;3.23;1.90;;;;;;;9.10;61.83;101019.59;5094837;28;20207;-84
2022/05/03 04:51:17;;;;;;;3.93;1.90;;;;;;;9.09;61.72;101025.84;5094827;28;20202;-83
2022/05/03 04:53:44;;;;;;;3.33;2.40;;;;;;;9.10;61.91;101026.69;5096016;28;20246;-85
2022/05/03 04:56:20;;;;;;;2.97;1.97;;;;;;;9.11;61.30;101026.63;5099817;28;20196;-83
2022/05/03 04:58:47;;;;;;;2.10;1.90;;;;;;;9.11;61.39;101034.59;5099839;28;20542;-84
2022/05/03 05:01:14;;;;;;;3.63;2.00;;;;;;;9.11;60.61;101031.06;5099729;28;20199;-84
2022/05/03 05:03:42;;;;;;;3.33;1.83;;;;;;;9.11;60.68;101034.59;5099719;28;20236;-83
2022/05/03 05:06:09;;;;;;;2.47;2.00;;;;;;;9.13;60.93;101042.50;5099870;28;20204;-83
2022/05/03 05:08:36;;;;;;;3.70;1.90;;;;;;;9.16;60.31;101044.97;5099793;28;20200;-83
2022/05/03 05:11:02;;;;;;;2.73;1.80;;;;;;;9.16;60.10;101042.31;5099116;28;20230;-83
2022/05/03 05:13:29;;;;;;;3.50;2.10;;;;;;;9.16;60.48;101040.50;5099561;28;20189;-83
2022/05/03 05:15:56;;;;;;;2.70;2.37;;;;;;;9.17;60.47;101046.69;5099763;28;20200;-83
2022/05/03 05:18:24;;;;;;;5.83;1.97;;;;;;;9.18;60.16;101046.59;5099520;28;20235;-82
2022/05/03 05:20:51;;;;;;;2.20;2.00;;;;;;;9.20;60.59;101046.53;5098561;28;20204;-83
2022/05/03 05:23:18;;;;;;;3.97;1.90;;;;;;;9.22;60.50;101042.00;5097451;28;20235;-83
2022/05/03 05:25:46;;;;;;;4.57;2.30;;;;;;;9.25;61.04;101053.34;5098693;28;20200;-83
2022/05/03 05:28:13;;;;;;;2.73;2.40;;;;;;;9.28;60.95;101049.66;5087502;28;20860;-84
2022/05/03 05:30:40;;;;;;;4.07;2.40;;;;;;;9.31;61.09;101054.84;5098708;28;20200;-83
2022/05/03 05:33:06;;;;;;;4.77;2.20;;;;;;;9.34;60.86;101050.19;5097474;28;20203;-82
2022/05/03 05:35:33;;;;;;;2.80;2.10;;;;;;;9.37;61.39;101051.84;5098778;28;20592;-83
2022/05/03 05:38:01;;;;;;;4.00;2.20;;;;;;;9.41;61.55;101050.75;5099173;28;20280;-83
2022/05/03 05:40:29;;;;;;;4.97;2.20;;;;;;;9.43;61.18;101046.22;5098704;28;20212;-83
2022/05/03 05:42:55;;;;;;;2.63;2.20;;;;;;;9.50;61.32;101060.88;5098792;28;20216;-83
2022/05/03 05:45:22;;;;;;;2.77;2.40;;;;;;;9.55;61.47;101048.22;5098601;28;20232;-82
2022/05/03 05:47:48;;;;;;;4.53;2.37;;;;;;;9.64;61.54;101062.84;5088822;28;20873;-83
2022/05/03 05:50:15;;;;;;;3.77;2.97;;;;;;;9.71;61.19;101053.56;5098255;28;20208;-82
2022/05/03 05:55:27;;;;;;;3.00;2.30;;;;;;;9.88;61.18;101064.19;5120093;28;20695;-82
2022/05/03 05:57:54;;;;;;;3.07;2.17;;;;;;;9.95;60.76;101067.38;5094498;28;20208;-83
2022/05/03 06:00:21;;;;;;;3.53;2.60;;;;;;;10.04;60.60;101067.72;5097155;28;20261;-82
2022/05/03 06:02:47;;;;;;;5.57;2.93;;;;;;;10.18;60.77;101061.66;5096101;28;20208;-82
2022/05/03 06:05:14;;;;;;;4.30;2.30;;;;;;;10.28;59.92;101064.69;5097578;28;20227;-82
2022/05/03 06:07:53;;;;;;;;;;;;;;;;;;;;;
2022/05/03 06:10:23;;;;;;;3.33;1.97;;;;;;;10.44;59.00;101070.88;5097957;28;20206;-83
2022/05/03 06:14:00;;;;;;;;;;;;;;;;;;;;;
2022/05/03 06:16:59;;;;;;;2.47;1.90;;;;;;;10.66;58.54;101068.72;5052057;28;20714;-82
2022/05/03 06:22:34;;;;;;;6.67;2.23;;;;;;;10.89;57.57;101078.06;4972581;28;20208;-84
2022/05/03 06:25:02;;;;;;;34.20;6.00;;;;;;;11.00;57.75;101082.78;4967645;28;20351;-86
2022/05/03 06:27:36;;;;;;;5.20;2.30;;;;;;;11.15;57.37;101076.53;5043841;28;20262;-85
2022/05/03 06:30:04;;;;;;;5.10;2.53;;;;;;;11.28;56.63;101084.69;5088175;28;20208;-86
2022/05/03 06:32:55;;;;;;;4.13;2.33;;;;;;;11.42;56.15;101079.38;5078764;28;20787;-85
2022/05/03 06:35:23;;;;;;;4.73;2.63;;;;;;;11.60;56.04;101082.75;5081719;28;20247;-85
2022/05/03 06:37:50;;;;;;;13.97;3.63;;;;;;;11.73;55.89;101087.25;5087410;28;20201;-86
2022/05/03 06:40:18;;;;;;;3.90;2.57;;;;;;;11.85;55.26;101082.13;5088380;28;20289;-86
2022/05/03 06:42:47;;;;;;;5.40;2.50;;;;;;;11.99;54.76;101090.16;5089931;28;20219;-86
2022/05/03 06:45:21;;;;;;;3.77;2.37;;;;;;;12.11;54.41;101089.38;5082187;28;20316;-86
2022/05/03 06:48:11;;;;;;;2.50;2.27;;;;;;;12.21;54.11;101084.31;5082350;28;20200;-86
2022/05/03 06:50:49;;;;;;;8.10;3.60;;;;;;;12.30;52.76;101081.94;5082252;28;20567;-86
2022/05/03 06:53:16;;;;;;;5.27;2.30;;;;;;;12.38;52.23;101082.28;5085805;28;20203;-85
2022/05/03 06:55:42;;;;;;;4.50;2.40;;;;;;;12.49;51.88;101084.28;5088311;28;20216;-86
2022/05/03 06:58:09;;;;;;;5.37;2.40;;;;;;;12.60;51.60;101083.56;5087469;28;20204;-85
2022/05/03 07:00:38;;;;;;;7.43;2.77;;;;;;;12.71;51.17;101081.94;5089123;28;20239;-86
2022/05/03 07:03:08;;;;;;;2.47;2.27;;;;;;;12.82;50.86;101081.22;5088989;28;20287;-86
2022/05/03 07:05:35;;;;;;;6.20;2.53;;;;;;;12.94;50.72;101077.72;5088119;28;20254;-85
2022/05/03 07:08:05;;;;;;;6.47;2.50;;;;;;;13.05;48.89;101085.91;5086791;28;20262;-85
2022/05/03 07:10:39;;;;;;;2.03;1.10;;;;;;;13.15;47.36;101088.84;5090240;28;20213;-85
2022/05/03 07:13:14;;;;;;;1.67;1.40;;;;;;;13.23;44.45;101088.34;5084900;28;20673;-85
2022/05/03 07:15:42;;;;;;;4.23;1.43;;;;;;;13.30;43.28;101089.63;5085094;28;20192;-85
2022/05/03 07:23:38;;;;;;;1.73;1.10;;;;;;;13.61;41.39;101086.59;5093606;28;20365;-85
2022/05/03 07:26:04;;;;;;;4.93;1.60;;;;;;;13.69;40.56;101086.91;5082732;28;20201;-85
2022/05/03 07:28:31;;;;;;;3.37;1.20;;;;;;;13.80;40.54;101094.19;5085021;28;20223;-85
2022/05/03 07:31:00;;;;;;;3.70;1.10;;;;;;;13.94;40.75;101093.25;5093810;28;20285;-85
2022/05/03 07:33:45;;;;;;;4.37;0.93;;;;;;;14.03;39.23;101098.78;5093602;28;20200;-85
2022/05/03 07:36:23;;;;;;;31.80;5.20;;;;;;;14.16;39.53;101093.41;5082852;28;20234;-85
2022/05/03 07:38:51;;;;;;;1.50;1.10;;;;;;;14.29;38.69;101099.63;5094539;28;20649;-84
2022/05/03 07:41:18;;;;;;;12.40;2.57;;;;;;;14.42;38.59;101100.47;5095959;28;20226;-83
2022/05/03 07:43:44;;;;;;;16.80;3.63;;;;;;;14.53;38.40;101089.81;5092072;28;20232;-85
2022/05/03 07:46:11;;;;;;;1.10;0.80;;;;;;;14.66;37.34;101091.63;5088439;28;20202;-85
2022/05/03 07:48:39;;;;;;;1.77;1.10;;;;;;;14.76;37.77;101100.69;5092957;28;20220;-86
2022/05/03 07:51:07;;;;;;;1.10;1.00;;;;;;;14.86;37.53;101096.38;5090689;28;20275;-85
2022/05/03 07:53:35;;;;;;;12.97;2.67;;;;;;;14.96;36.97;101093.88;5094709;28;20226;-85
2022/05/03 07:56:01;;;;;;;4.93;1.10;;;;;;;15.04;37.00;101096.84;5096077;28;20204;-86
2022/05/03 07:58:28;;;;;;;1.77;0.83;;;;;;;15.11;36.59;101096.25;5096962;28;20200;-84
2022/05/03 08:00:55;;;;;;;1.70;0.90;;;;;;;15.23;37.19;101095.31;5096498;28;20312;-86
2022/05/03 08:03:23;;;;;;;5.30;1.33;;;;;;;15.40;37.03;101088.69;5097323;28;20292;-86
2022/05/03 08:05:52;;;;;;;1.97;1.00;;;;;;;15.54;36.96;101088.47;5096689;28;20235;-85
2022/05/03 08:08:18;;;;;;;2.97;1.20;;;;;;;15.65;36.45;101097.56;5097984;28;20598;-86
2022/05/03 08:10:45;;;;;;;1.93;1.10;;;;;;;15.70;36.13;101093.56;5095653;28;20652;-86
2022/05/03 08:13:12;;;;;;;3.97;1.67;;;;;;;15.75;36.60;101099.44;5112140;28;20275;-87
2022/05/03 08:15:38;;;;;;;3.53;1.30;;;;;;;15.85;37.09;101088.81;5096521;28;20649;-85
2022/05/03 08:18:05;;;;;;;1.40;1.10;;;;;;;15.97;36.95;101094.06;5100052;28;20255;-84
2022/05/03 08:20:32;;;;;;;3.20;1.40;;;;;;;16.09;37.00;101096.78;5095799;28;20209;-84
2022/05/03 08:23:00;;;;;;;5.20;1.20;;;;;;;16.22;36.61;101098.34;5096122;28;20649;-84
2022/05/03 08:25:27;;;;;;;5.40;1.80;;;;;;;16.35;36.19;101097.38;5097218;28;20345;-84
2022/05/03 08:27:54;;;;;;;2.60;1.30;;;;;;;16.45;35.60;101096.53;5097156;28;20614;-84
2022/05/03 08:30:20;;;;;;;1.87;1.13;;;;;;;16.52;35.66;101097.72;5110180;28;20202;-84
2022/05/03 08:32:47;;;;;;;2.07;1.40;;;;;;;16.61;35.17;101099.66;5101347;28;20655;-84
2022/05/03 08:35:14;;;;;;;2.93;1.27;;;;;;;16.66;35.19;101102.84;5096275;28;20227;-84
2022/05/03 08:43:11;;;;;;;3.10;1.70;;;;;;;16.86;35.13;101103.06;5096274;28;20187;-84
2022/05/03 08:45:40;;;;;;;2.37;1.40;;;;;;;16.95;35.48;101102.31;5096555;28;20226;-84
2022/05/03 08:48:08;;;;;;;2.23;1.43;;;;;;;17.02;34.33;101108.88;5100336;28;20231;-85
2022/05/03 08:50:35;;;;;;;4.87;1.70;;;;;;;17.02;34.35;101113.44;5097966;28;20197;-84
2022/05/03 08:53:04;;;;;;;1.53;1.23;;;;;;;17.07;35.07;101105.81;5097169;28;20215;-85
2022/05/03 08:55:32;;;;;;;1.90;1.20;;;;;;;17.19;34.78;101100.28;5084214;28;20215;-85
2022/05/03 08:57:59;;;;;;;1.80;1.57;;;;;;;17.28;34.37;101110.25;5091044;28;20293;-85
2022/05/03 09:00:30;;;;;;;2.80;1.60;;;;;;;17.35;34.28;101111.47;5098069;28;20734;-84
2022/05/03 09:03:00;;;;;;;9.80;2.03;;;;;;;17.40;34.21;101107.50;5091010;28;20201;-85
2022/05/03 09:05:28;;;;;;;2.20;1.47;;;;;;;17.45;34.73;101102.59;5078716;28;20240;-85
2022/05/03 09:07:57;;;;;;;1.80;1.70;;;;;;;17.49;33.96;101106.72;5077356;28;20293;-84
2022/05/03 09:10:25;;;;;;;1.50;1.37;;;;;;;17.54;34.03;101105.38;5076629;28;20288;-84
2022/05/03 09:12:55;;;;;;;1.93;1.50;;;;;;;17.65;34.33;101107.16;5077374;28;20281;-84
2022/05/03 09:15:36;;;;;;;2.30;1.70;;;;;;;17.79;34.02;101103.28;5076444;28;20233;-84
2022/05/03 09:18:03;;;;;;;4.17;1.93;;;;;;;17.84;33.88;101101.03;5076778;28;20206;-85
2022/05/03 09:26:11;;;;;;;114.73;11.47;;;;;;;18.12;34.03;101099.47;5077232;28;20249;-84
2022/05/03 09:28:46;;;;;;;1.97;1.77;;;;;;;18.17;33.54;101092.69;5078837;28;20281;-87
2022/05/03 09:31:12;;;;;;;2.73;2.00;;;;;;;18.14;33.13;101090.28;5078149;28;20209;-86
2022/05/03 09:33:39;;;;;;;4.70;2.20;;;;;;;18.11;33.55;101095.94;5086792;28;20221;-83
2022/05/03 09:36:09;;;;;;;2.53;2.23;;;;;;;18.19;34.05;101089.88;5095568;28;20202;-84
2022/05/03 09:38:45;;;;;;;4.13;2.03;;;;;;;18.25;33.62;101097.44;5098580;28;20233;-84
2022/05/03 09:41:15;;;;;;;3.17;2.10;;;;;;;18.35;33.56;101092.91;5101005;28;20189;-84
2022/05/03 09:44:04;;;;;;;3.27;2.00;;;;;;;18.44;34.59;101092.13;5100474;28;20227;-86
2022/05/03 09:46:32;;;;;;;2.57;1.93;;;;;;;18.54;33.63;101087.59;5100972;28;20186;-84
2022/05/03 09:48:59;;;;;;;3.00;2.20;;;;;;;18.57;34.15;101087.31;5101386;28;20301;-85
2022/05/03 09:51:26;;;;;;;4.30;2.10;;;;;;;18.66;33.95;101081.09;5100884;28;20250;-85
2022/05/03 09:53:59;;;;;;;2.53;2.17;;;;;;;18.72;33.68;101088.66;5100517;28;20710;-84
2022/05/03 09:56:28;;;;;;;2.87;2.57;;;;;;;18.77;33.26;101079.31;5100820;28;20286;-84
2022/05/03 09:59:01;;;;;;;4.20;2.73;;;;;;;18.81;33.50;101075.34;5100381;28;20643;-85
2022/05/03 10:01:30;;;;;;;3.17;2.47;;;;;;;18.92;33.43;101077.91;5100713;28;20211;-84
2022/05/03 10:03:58;;;;;;;4.93;2.70;;;;;;;18.99;32.89;101074.47;5100149;28;20219;-84
2022/05/03 10:06:29;;;;;;;4.13;2.63;;;;;;;19.08;33.21;101073.66;5101680;28;20265;-84
2022/05/03 10:08:56;;;;;;;3.70;2.70;;;;;;;19.18;33.00;101075.47;5100892;28;20196;-84
2022/05/03 10:11:26;;;;;;;4.33;3.10;;;;;;;19.24;32.74;101078.47;5100771;28;20254;-84
2022/05/03 10:13:53;;;;;;;4.07;3.30;;;;;;;19.34;32.73;101073.09;5100277;28;20229;-84
2022/05/03 10:21:57;;;;;;;5.03;3.10;;;;;;;19.54;32.88;101066.66;5100047;28;20220;-85
2022/05/03 10:24:26;;;;;;;4.17;3.00;;;;;;;19.62;33.15;101071.34;5099502;28;20249;-85
2022/05/03 10:27:01;;;;;;;3.87;3.37;;;;;;;19.66;33.21;101067.38;5099364;28;20205;-84
2022/05/03 10:29:29;;;;;;;3.27;2.93;;;;;;;19.74;33.78;101067.47;5099592;28;20193;-84
2022/05/03 10:32:02;;;;;;;5.20;2.97;;;;;;;19.84;33.61;101065.63;5097759;28;20229;-84
2022/05/03 10:34:51;;;;;;;3.47;3.13;;;;;;;19.85;33.39;101061.94;5098214;28;20309;-84
2022/05/03 10:37:19;;;;;;;5.50;3.80;;;;;;;19.84;33.48;101060.22;5098687;28;20185;-84
2022/05/03 10:40:02;;;;;;;3.50;3.03;;;;;;;19.83;33.58;101060.38;5099430;28;20226;-84
2022/05/03 10:42:30;;;;;;;4.33;3.57;;;;;;;19.86;33.65;101057.38;5101228;28;20236;-83
2022/05/03 10:45:00;;;;;;;4.17;3.43;;;;;;;19.86;33.72;101058.22;5100617;28;20315;-84
2022/05/03 10:47:48;;;;;;;3.27;2.97;;;;;;;19.94;33.87;101050.22;5100232;28;20222;-84
2022/05/03 10:50:33;;;;;;;4.10;3.30;;;;;;;20.04;33.46;101050.19;5099520;28;20189;-83
2022/05/03 10:53:20;;;;;;;3.70;2.97;;;;;;;20.06;32.69;101043.59;5098913;28;20282;-84
2022/05/03 10:56:12;;;;;;;5.73;3.07;;;;;;;20.10;32.68;101042.31;5097219;28;20203;-85
2022/05/03 10:58:40;;;;;;;5.60;3.33;;;;;;;20.16;33.34;101037.31;5098507;28;20707;-84
2022/05/03 11:01:10;;;;;;;4.00;3.13;;;;;;;20.25;33.29;101041.81;5097493;28;20290;-84
2022/05/03 11:03:41;;;;;;;5.13;3.20;;;;;;;20.25;33.07;101036.41;5098605;28;20580;-84
2022/05/03 11:06:42;;;;;;;4.47;3.80;;;;;;;20.24;33.17;101037.44;5097840;28;20230;-84
2022/05/03 11:09:09;;;;;;;3.30;3.00;;;;;;;20.21;32.91;101033.19;5090821;28;20207;-84
2022/05/03 11:12:02;;;;;;;4.90;3.17;;;;;;;20.18;33.18;101032.63;5098644;28;20226;-85
2022/05/03 11:14:55;;;;;;;4.07;2.83;;;;;;;20.11;33.48;101030.50;5098395;28;20223;-84
2022/05/03 11:17:22;;;;;;;3.73;3.43;;;;;;;20.12;33.25;101023.25;5098210;28;20222;-84
2022/05/03 11:19:55;;;;;;;3.83;3.23;;;;;;;20.09;33.49;101018.97;5098007;28;20249;-84
2022/05/03 11:22:25;;;;;;;4.17;3.33;;;;;;;20.11;34.04;101025.09;5098569;28;20190;-84
2022/05/03 11:24:53;;;;;;;6.07;3.07;;;;;;;20.16;33.65;101019.25;5100669;28;20679;-85
2022/05/03 11:27:21;;;;;;;3.57;3.20;;;;;;;20.19;33.98;101016.25;5098859;28;20201;-83
2022/05/03 11:29:55;;;;;;;3.80;3.40;;;;;;;20.23;33.91;101014.94;5099024;28;20217;-84
2022/05/03 11:32:29;;;;;;;5.83;3.40;;;;;;;20.25;33.87;101015.63;5099200;28;20197;-84
2022/05/03 11:35:01;;;;;;;3.30;3.00;;;;;;;20.27;33.97;101012.78;5099009;28;20637;-84
2022/05/03 11:37:29;;;;;;;4.53;2.83;;;;;;;20.31;34.07;101014.19;5099004;28;20527;-83
2022/05/03 11:40:02;;;;;;;6.20;3.90;;;;;;;20.39;34.11;101003.50;5099629;28;20297;-84
2022/05/03 11:42:36;;;;;;;3.27;2.93;;;;;;;20.50;33.85;101013.25;5098804;28;20288;-84
2022/05/03 11:45:04;;;;;;;2.90;2.70;;;;;;;20.56;33.37;101015.34;5097307;28;20326;-87
2022/05/03 11:47:33;;;;;;;3.65;2.70;;;;;;;20.58;32.92;101011.50;5097637;28;20554;-84
2022/05/03 11:50:00;;;;;;;3.47;2.90;;;;;;;20.60;33.42;101014.88;5097561;28;20258;-84
2022/05/03 11:57:58;;;;;;;4.18;2.88;;;;;;;20.68;32.96;100998.72;5097669;28;20271;-84
2022/05/03 12:00:25;;;;;;;3.10;2.40;;;;;;;20.72;32.98;101005.53;5098640;28;20233;-84
2022/05/03 12:02:52;;;;;;;4.60;2.92;;;;;;;20.73;33.95;100999.13;5098776;28;20226;-84
2022/05/03 12:05:20;;;;;;;5.55;3.38;;;;;;;20.77;33.86;101002.38;5104560;28;20331;-83
2022/05/03 12:07:50;;;;;;;4.53;3.08;;;;;;;20.79;33.83;100994.94;5096264;28;20230;-83
2022/05/03 12:10:20;;;;;;;3.72;2.97;;;;;;;20.80;33.67;100993.94;5086355;28;20279;-84
2022/05/03 12:12:48;;;;;;;4.53;3.05;;;;;;;20.76;33.31;100990.69;5088628;28;20232;-85
2022/05/03 12:15:19;;;;;;;3.13;2.47;;;;;;;20.71;33.05;100989.47;5084460;28;20575;-86
2022/05/03 12:17:59;;;;;;;3.72;2.30;;;;;;;20.66;32.70;100983.63;5082118;28;20279;-84
2022/05/03 12:20:28;;;;;;;4.30;2.30;;;;;;;20.64;32.59;100983.78;5080729;28;20243;-84
2022/05/03 12:23:19;;;;;;;3.10;2.80;;;;;;;20.65;33.01;100984.66;5088232;28;20208;-85
2022/05/03 12:25:48;;;;;;;4.03;3.65;;;;;;;20.63;33.10;100987.50;5081400;28;20570;-84
2022/05/03 12:28:15;;;;;;;3.75;3.13;;;;;;;20.65;33.40;100979.22;5082418;28;20211;-84
2022/05/03 12:30:42;;;;;;;6.60;3.00;;;;;;;20.63;33.50;100981.25;5080981;28;20203;-85
2022/05/03 12:33:14;;;;;;;4.68;3.10;;;;;;;20.66;34.33;100978.22;5081511;28;20679;-85